createdAt,value
2022-09-28T00:01:22.591Z,100507.28
2022-09-28T00:03:55.269Z,100505.72
2022-09-28T00:06:30.744Z,100507.06
2022-09-28T00:09:07.507Z,100496.97
2022-09-28T00:11:37.042Z,100509.47
2022-09-28T00:14:08.477Z,100513.97
2022-09-28T00:16:45.873Z,100510.06
2022-09-28T00:19:18.463Z,100507.78
2022-09-28T00:21:50.088Z,100513.59
2022-09-28T00:24:27.348Z,100492.13
2022-09-28T00:26:58.916Z,100498.81
2022-09-28T00:29:36.516Z,100496.47
2022-09-28T00:32:14.754Z,100501.19
2022-09-28T00:34:49.782Z,100507.50
2022-09-28T00:37:20.609Z,100511.09
2022-09-28T00:39:50.398Z,100508.94
2022-09-28T00:42:22.484Z,100519.31
2022-09-28T00:44:56.828Z,100522.22
2022-09-28T00:47:44.620Z,100531.78
2022-09-28T00:50:46.888Z,100530.63
2022-09-28T00:53:26.921Z,100532.97
2022-09-28T00:56:08.332Z,100535.06
2022-09-28T00:58:45.224Z,100538.09
2022-09-28T01:01:15.698Z,100537.00
2022-09-28T01:03:49.666Z,100544.59
2022-09-28T01:06:23.379Z,100536.09
2022-09-28T01:08:59.338Z,100539.16
2022-09-28T01:11:45.911Z,100534.53
2022-09-28T01:14:21.860Z,100546.09
2022-09-28T01:17:23.635Z,100547.44
2022-09-28T01:20:40.710Z,100547.06
2022-09-28T01:23:50.409Z,100551.38
2022-09-28T01:26:34.651Z,100547.09
2022-09-28T01:29:25.479Z,100551.19
2022-09-28T01:32:22.612Z,100548.84
2022-09-28T01:35:06.663Z,100549.53
2022-09-28T01:37:53.980Z,100549.06
2022-09-28T01:40:31.210Z,100552.88
2022-09-28T01:43:28.006Z,100556.16
2022-09-28T01:46:21.603Z,100564.00
2022-09-28T01:49:12.205Z,100559.69
2022-09-28T01:51:52.535Z,100560.84
2022-09-28T01:54:51.460Z,100553.72
2022-09-28T01:57:56.099Z,100563.22
2022-09-28T02:00:32.266Z,100566.91
2022-09-28T02:03:33.067Z,100570.56
2022-09-28T02:06:17.228Z,100567.75
2022-09-28T02:08:57.787Z,100569.06
2022-09-28T02:11:55.317Z,100580.91
2022-09-28T02:14:41.017Z,100589.75
2022-09-28T02:17:15.274Z,100589.44
2022-09-28T02:19:48.274Z,100597.81
2022-09-28T02:22:54.512Z,100586.50
2022-09-28T02:25:52.864Z,100590.59
2022-09-28T02:28:33.048Z,100596.28
2022-09-28T02:31:06.214Z,100595.16
2022-09-28T02:33:39.476Z,100592.78
2022-09-28T02:36:19.079Z,100586.81
2022-09-28T02:38:49.819Z,100585.72
2022-09-28T02:41:52.545Z,100594.03
2022-09-28T02:45:23.048Z,100606.88
2022-09-28T02:48:36.115Z,100615.03
2022-09-28T02:56:29.520Z,100610.13
2022-09-28T02:59:32.239Z,100619.97
2022-09-28T03:02:20.229Z,100623.56
2022-09-28T03:05:07.263Z,100628.00
2022-09-28T03:07:58.604Z,100630.25
2022-09-28T03:10:47.827Z,100631.56
2022-09-28T03:13:17.970Z,100626.44
2022-09-28T03:15:48.990Z,100633.03
2022-09-28T03:18:19.800Z,100633.44
2022-09-28T03:20:50.570Z,100631.09
2022-09-28T03:23:24.834Z,100637.72
2022-09-28T03:25:57.990Z,100635.69
2022-09-28T03:28:28.066Z,100631.00
2022-09-28T03:31:05.860Z,100633.81
2022-09-28T03:33:54.100Z,100628.69
2022-09-28T03:37:12.639Z,100641.22
2022-09-28T03:39:51.224Z,100642.66
2022-09-28T03:42:26.637Z,100645.81
2022-09-28T03:44:57.575Z,100640.84
2022-09-28T03:47:36.265Z,100646.09
2022-09-28T03:50:08.030Z,100644.50
2022-09-28T03:52:37.640Z,100642.97
2022-09-28T03:55:07.349Z,100646.16
2022-09-28T03:57:45.156Z,100647.13
2022-09-28T04:00:15.614Z,100658.69
2022-09-28T04:02:48.433Z,100664.56
2022-09-28T04:05:17.832Z,100666.00
2022-09-28T04:07:47.288Z,100671.13
2022-09-28T04:10:16.839Z,100682.13
2022-09-28T04:12:46.889Z,100681.03
2022-09-28T04:15:17.291Z,100686.69
2022-09-28T04:17:46.699Z,100684.81
2022-09-28T04:20:34.264Z,100688.56
2022-09-28T04:23:20.964Z,100694.03
2022-09-28T04:25:54.409Z,100700.28
2022-09-28T04:28:46.809Z,100703.94
2022-09-28T04:31:22.049Z,100710.22
2022-09-28T04:33:51.507Z,100709.53
2022-09-28T04:36:24.110Z,100717.19
2022-09-28T04:38:54.460Z,100709.38
2022-09-28T04:41:26.286Z,100708.84
2022-09-28T04:43:55.601Z,100706.44
2022-09-28T04:46:27.274Z,100710.31
2022-09-28T04:49:22.993Z,100712.13
2022-09-28T04:51:56.180Z,100713.56
2022-09-28T04:54:25.768Z,100720.31
2022-09-28T04:56:56.314Z,100719.50
2022-09-28T04:59:27.038Z,100713.56
2022-09-28T05:01:56.565Z,100719.22
2022-09-28T05:05:03.128Z,100731.13
2022-09-28T05:07:47.060Z,100728.09
2022-09-28T05:10:16.964Z,100731.75
2022-09-28T05:12:46.152Z,100727.56
2022-09-28T05:15:15.356Z,100727.72
2022-09-28T05:17:44.779Z,100733.31
2022-09-28T05:20:30.773Z,100718.25
2022-09-28T05:23:00.198Z,100716.38
2022-09-28T05:25:29.792Z,100717.72
2022-09-28T05:28:25.901Z,100728.53
2022-09-28T05:31:16.145Z,100726.38
2022-09-28T05:34:11.724Z,100723.78
2022-09-28T05:36:43.548Z,100725.44
2022-09-28T05:39:13.234Z,100725.66
2022-09-28T05:41:42.622Z,100739.09
2022-09-28T05:44:11.669Z,100737.56
2022-09-28T05:46:41.122Z,100740.19
2022-09-28T05:49:11.726Z,100729.34
2022-09-28T05:51:41.105Z,100745.13
2022-09-28T05:54:11.141Z,100742.63
2022-09-28T05:56:44.153Z,100734.59
2022-09-28T05:59:14.346Z,100739.47
2022-09-28T06:01:44.406Z,100743.25
2022-09-28T06:04:15.525Z,100734.28
2022-09-28T06:06:45.738Z,100733.78
2022-09-28T06:09:15.448Z,100733.59
2022-09-28T06:12:03.067Z,100730.72
2022-09-28T06:14:41.186Z,100729.97
2022-09-28T06:17:10.661Z,100730.59
2022-09-28T06:19:40.249Z,100730.91
2022-09-28T06:22:19.157Z,100739.19
2022-09-28T06:24:56.998Z,100739.53
2022-09-28T06:27:26.962Z,100735.78
2022-09-28T06:29:56.532Z,100737.94
2022-09-28T06:32:26.022Z,100741.97
2022-09-28T06:34:56.488Z,100745.28
2022-09-28T06:37:28.649Z,100744.22
2022-09-28T06:39:58.583Z,100746.13
2022-09-28T06:42:28.049Z,100746.25
2022-09-28T06:45:22.755Z,100749.91
2022-09-28T06:48:08.117Z,100751.59
2022-09-28T06:50:44.654Z,100756.78
2022-09-28T06:53:26.570Z,100758.97
2022-09-28T06:56:03.659Z,100759.00
2022-09-28T06:58:33.193Z,100760.22
2022-09-28T07:01:08.035Z,100760.47
2022-09-28T07:03:46.094Z,100760.41
2022-09-28T07:06:29.712Z,100754.75
2022-09-28T07:09:32.602Z,100759.81
2022-09-28T07:12:25.342Z,100746.41
2022-09-28T07:14:58.224Z,100751.69
2022-09-28T07:17:31.114Z,100760.75
2022-09-28T07:20:14.371Z,100755.38
2022-09-28T07:22:49.260Z,100760.31
2022-09-28T07:25:23.364Z,100772.13
2022-09-28T07:28:07.895Z,100769.44
2022-09-28T07:31:00.017Z,100752.44
2022-09-28T07:33:52.181Z,100754.47
2022-09-28T07:36:37.460Z,100755.69
2022-09-28T07:39:16.221Z,100761.78
2022-09-28T07:41:45.407Z,100752.19
2022-09-28T07:44:14.567Z,100754.88
2022-09-28T07:46:44.300Z,100750.88
2022-09-28T07:49:23.840Z,100758.41
2022-09-28T07:52:16.096Z,100759.97
2022-09-28T07:55:07.181Z,100762.94
2022-09-28T07:58:03.185Z,100768.47
2022-09-28T08:00:52.812Z,100748.53
2022-09-28T08:03:25.389Z,100746.09
2022-09-28T08:06:02.969Z,100756.56
2022-09-28T08:08:34.398Z,100753.41
2022-09-28T08:11:04.697Z,100760.22
2022-09-28T08:13:56.351Z,100755.84
2022-09-28T08:17:06.291Z,100754.34
2022-09-28T08:20:13.917Z,100758.25
2022-09-28T08:22:43.831Z,100760.16
2022-09-28T08:25:13.465Z,100761.44
2022-09-28T08:27:42.685Z,100760.13
2022-09-28T08:30:13.366Z,100761.91
2022-09-28T08:33:02.742Z,100760.06
2022-09-28T08:35:44.349Z,100760.69
2022-09-28T08:38:23.984Z,100762.16
2022-09-28T08:41:18.042Z,100753.59
2022-09-28T08:44:25.969Z,100750.09
2022-09-28T08:47:59.645Z,100743.88
2022-09-28T08:51:01.476Z,100742.31
2022-09-28T08:54:12.046Z,100750.44
2022-09-28T08:57:00.883Z,100738.53
2022-09-28T08:59:54.813Z,100738.88
2022-09-28T09:02:37.646Z,100725.63
2022-09-28T09:05:24.324Z,100731.72
2022-09-28T09:08:19.978Z,100721.91
2022-09-28T09:11:38.080Z,100723.84
2022-09-28T09:14:28.705Z,100734.69
2022-09-28T09:17:01.852Z,100740.25
2022-09-28T09:20:13.663Z,100746.91
2022-09-28T09:23:19.415Z,100749.28
2022-09-28T09:25:55.871Z,100757.53
2022-09-28T09:28:52.573Z,100761.34
2022-09-28T09:31:33.059Z,100762.75
2022-09-28T09:34:19.957Z,100764.88
2022-09-28T09:37:00.696Z,100761.28
2022-09-28T09:40:11.890Z,100748.53
2022-09-28T09:43:38.357Z,100745.69
2022-09-28T09:46:40.504Z,100749.03
2022-09-28T09:49:50.359Z,100736.75
2022-09-28T09:55:17.788Z,100734.16
2022-09-28T09:58:03.513Z,100714.66
2022-09-28T10:00:48.610Z,100714.09
2022-09-28T10:03:49.085Z,100728.25
2022-09-28T10:06:37.847Z,100733.03
2022-09-28T10:09:18.348Z,100741.84
2022-09-28T10:11:51.115Z,100738.94
2022-09-28T10:14:25.940Z,100734.09
2022-09-28T10:17:04.733Z,100732.34
2022-09-28T10:19:52.284Z,100736.03
2022-09-28T10:22:48.155Z,100743.69
2022-09-28T10:25:21.156Z,100737.69
2022-09-28T10:27:53.441Z,100732.28
2022-09-28T10:30:26.827Z,100742.25
2022-09-28T10:33:00.093Z,100735.97
2022-09-28T10:35:45.113Z,100731.84
2022-09-28T10:38:19.064Z,100729.06
2022-09-28T10:41:22.154Z,100729.91
2022-09-28T10:44:08.270Z,100730.31
2022-09-28T10:46:58.285Z,100727.97
2022-09-28T10:49:31.341Z,100720.41
2022-09-28T10:52:00.803Z,100712.56
2022-09-28T10:54:35.827Z,100717.06
2022-09-28T10:57:24.908Z,100710.88
2022-09-28T11:00:01.175Z,100716.88
2022-09-28T11:02:42.474Z,100711.72
2022-09-28T11:05:24.076Z,100718.09
2022-09-28T11:07:58.408Z,100728.72
2022-09-28T11:10:35.502Z,100726.00
2022-09-28T11:13:15.590Z,100726.63
2022-09-28T11:15:52.337Z,100731.41
2022-09-28T11:18:33.251Z,100727.41
2022-09-28T11:21:44.208Z,100730.00
2022-09-28T11:24:19.319Z,100718.72
2022-09-28T11:26:53.838Z,100727.75
2022-09-28T11:29:39.412Z,100717.38
2022-09-28T11:32:41.353Z,100731.22
2022-09-28T11:35:35.255Z,100724.19
2022-09-28T11:38:26.427Z,100723.66
2022-09-28T11:41:34.172Z,100729.44
2022-09-28T11:44:30.858Z,100725.53
2022-09-28T11:47:28.068Z,100720.03
2022-09-28T11:50:43.295Z,100716.84
2022-09-28T11:53:15.640Z,100716.03
2022-09-28T11:56:27.789Z,100717.56
2022-09-28T11:59:01.749Z,100720.09
2022-09-28T12:01:50.672Z,100726.81
2022-09-28T12:04:34.449Z,100729.28
2022-09-28T12:07:17.362Z,100736.66
2022-09-28T12:10:12.815Z,100740.56
2022-09-28T12:13:05.445Z,100742.03
2022-09-28T12:16:06.882Z,100746.38
2022-09-28T12:18:43.259Z,100752.94
2022-09-28T12:21:30.853Z,100757.72
2022-09-28T12:24:14.755Z,100767.00
2022-09-28T12:26:53.250Z,100774.63
2022-09-28T12:29:29.606Z,100782.56
2022-09-28T12:32:13.880Z,100790.97
2022-09-28T12:34:44.264Z,100794.41
2022-09-28T12:37:42.473Z,100783.44
2022-09-28T12:40:28.004Z,100784.16
2022-09-28T12:43:15.892Z,100795.44
2022-09-28T12:46:12.432Z,100787.38
2022-09-28T12:52:38.787Z,100777.91
2022-09-28T12:55:25.096Z,100781.91
2022-09-28T12:57:59.200Z,100771.13
2022-09-28T13:00:40.921Z,100774.63
2022-09-28T13:03:43.457Z,100784.66
2022-09-28T13:06:15.639Z,100804.19
2022-09-28T13:09:21.051Z,100809.75
2022-09-28T13:11:59.687Z,100816.88
2022-09-28T13:14:59.152Z,100825.69
2022-09-28T13:17:41.560Z,100828.84
2022-09-28T13:20:33.640Z,100839.22
2022-09-28T13:23:26.592Z,100846.47
2022-09-28T13:26:11.882Z,100845.63
2022-09-28T13:28:46.261Z,100860.81
2022-09-28T13:31:21.800Z,100862.91
2022-09-28T13:33:52.487Z,100873.66
2022-09-28T13:36:27.895Z,100877.97
2022-09-28T13:39:02.134Z,100891.06
2022-09-28T13:41:37.823Z,100886.28
2022-09-28T13:44:17.736Z,100886.25
2022-09-28T13:46:47.245Z,100879.94
2022-09-28T13:49:33.685Z,100877.59
2022-09-28T13:53:00.628Z,100869.56
2022-09-28T13:55:38.155Z,100872.34
2022-09-28T13:58:35.754Z,100869.63
2022-09-28T14:01:08.277Z,100884.75
2022-09-28T14:04:12.794Z,100864.03
2022-09-28T14:06:53.552Z,100872.00
2022-09-28T14:09:42.684Z,100871.19
2022-09-28T14:12:36.552Z,100868.81
2022-09-28T14:15:31.645Z,100869.69
2022-09-28T14:18:27.279Z,100849.41
2022-09-28T14:20:59.548Z,100847.41
2022-09-28T14:23:57.559Z,100827.47
2022-09-28T14:26:44.966Z,100831.78
2022-09-28T14:29:30.545Z,100829.81
2022-09-28T14:32:13.256Z,100833.69
2022-09-28T14:34:52.606Z,100833.53
2022-09-28T14:37:44.914Z,100828.88
2022-09-28T14:40:49.976Z,100847.16
2022-09-28T14:43:47.030Z,100847.91
2022-09-28T14:46:16.601Z,100854.28
2022-09-28T14:48:52.224Z,100849.50
2022-09-28T14:51:41.619Z,100862.66
2022-09-28T14:54:19.942Z,100872.69
2022-09-28T14:56:57.985Z,100857.41
2022-09-28T14:59:37.155Z,100844.78
2022-09-28T15:02:12.462Z,100847.91
2022-09-28T15:05:14.160Z,100825.69
2022-09-28T15:07:50.385Z,100816.56
2022-09-28T15:10:32.581Z,100808.16
2022-09-28T15:13:26.863Z,100804.06
2022-09-28T15:16:11.055Z,100815.22
2022-09-28T15:19:04.979Z,100820.75
2022-09-28T15:21:40.913Z,100829.47
2022-09-28T15:24:34.619Z,100830.28
2022-09-28T15:27:14.906Z,100807.00
2022-09-28T15:29:58.865Z,100792.03
2022-09-28T15:32:30.460Z,100774.16
2022-09-28T15:35:18.150Z,100764.25
2022-09-28T15:37:52.919Z,100760.00
2022-09-28T15:40:39.097Z,100767.47
2022-09-28T15:43:29.933Z,100763.28
2022-09-28T15:46:09.736Z,100758.06
2022-09-28T15:48:56.369Z,100750.91
2022-09-28T15:51:26.961Z,100750.78
2022-09-28T15:53:59.306Z,100768.03
2022-09-28T15:56:29.759Z,100792.06
2022-09-28T15:59:17.349Z,100813.63
2022-09-28T16:01:47.139Z,100820.75
2022-09-28T16:04:41.106Z,100834.13
2022-09-28T16:07:24.671Z,100850.25
2022-09-28T16:10:08.577Z,100852.72
2022-09-28T16:12:38.888Z,100852.94
2022-09-28T16:15:35.282Z,100847.13
2022-09-28T16:18:26.603Z,100843.66
2022-09-28T16:21:02.166Z,100824.66
2022-09-28T16:23:35.248Z,100810.50
2022-09-28T16:26:18.782Z,100816.91
2022-09-28T16:28:52.694Z,100829.91
2022-09-28T16:31:22.119Z,100856.41
2022-09-28T16:33:57.014Z,100865.94
2022-09-28T16:36:40.280Z,100854.22
2022-09-28T16:39:12.601Z,100862.06
2022-09-28T16:41:45.895Z,100869.03
2022-09-28T16:44:25.782Z,100872.69
2022-09-28T16:46:58.629Z,100871.47
2022-09-28T16:49:29.178Z,100866.66
2022-09-28T16:51:58.391Z,100860.22
2022-09-28T16:54:45.732Z,100866.72
2022-09-28T16:57:16.693Z,100860.34
2022-09-28T16:59:46.861Z,100840.91
2022-09-28T17:05:12.023Z,100854.44
2022-09-28T17:07:48.045Z,100861.38
2022-09-28T17:10:50.060Z,100849.88
2022-09-28T17:13:32.430Z,100875.88
2022-09-28T17:16:12.881Z,100899.03
2022-09-28T17:18:43.139Z,100894.00
2022-09-28T17:21:22.114Z,100892.38
2022-09-28T17:23:51.768Z,100887.88
2022-09-28T17:26:34.347Z,100900.28
2022-09-28T17:29:04.038Z,100899.63
2022-09-28T17:31:33.235Z,100901.41
2022-09-28T17:34:02.697Z,100902.91
2022-09-28T17:36:31.886Z,100897.13
2022-09-28T17:39:01.481Z,100896.38
2022-09-28T17:41:30.564Z,100896.00
2022-09-28T17:44:01.130Z,100892.78
2022-09-28T17:46:39.667Z,100900.00
2022-09-28T17:49:13.077Z,100896.88
2022-09-28T17:51:42.693Z,100897.66
2022-09-28T17:54:17.387Z,100894.75
2022-09-28T17:56:49.703Z,100905.59
2022-09-28T17:59:21.727Z,100906.13
2022-09-28T18:01:54.125Z,100918.56
2022-09-28T18:04:50.181Z,100916.78
2022-09-28T18:07:18.264Z,100937.88
2022-09-28T18:09:57.778Z,100929.19
2022-09-28T18:12:30.077Z,100929.03
2022-09-28T18:15:01.161Z,100928.13
2022-09-28T18:17:31.055Z,100934.53
2022-09-28T18:20:00.878Z,100928.94
2022-09-28T18:22:31.114Z,100944.41
2022-09-28T18:25:01.206Z,100951.50
2022-09-28T18:27:37.070Z,100952.25
2022-09-28T18:30:08.793Z,100959.56
2022-09-28T18:32:40.130Z,100954.44
2022-09-28T18:35:29.616Z,100970.06
2022-09-28T18:38:00.230Z,100964.47
2022-09-28T18:40:29.887Z,100956.44
2022-09-28T18:43:00.037Z,100957.69
2022-09-28T18:45:31.274Z,100953.81
2022-09-28T18:48:03.536Z,100939.75
2022-09-28T18:50:36.365Z,100939.94
2022-09-28T18:53:14.615Z,100936.81
2022-09-28T18:55:45.707Z,100947.91
2022-09-28T18:58:15.127Z,100953.44
2022-09-28T19:00:44.706Z,100954.69
2022-09-28T19:03:16.383Z,100960.53
2022-09-28T19:05:47.134Z,100966.44
2022-09-28T19:08:19.036Z,100970.66
2022-09-28T19:10:49.534Z,100971.19
2022-09-28T19:13:18.716Z,100967.16
2022-09-28T19:15:49.708Z,100962.75
2022-09-28T19:18:18.990Z,100966.88
2022-09-28T19:20:49.388Z,100974.75
2022-09-28T19:23:19.134Z,100973.63
2022-09-28T19:25:48.349Z,100963.06
2022-09-28T19:28:17.598Z,100957.34
2022-09-28T19:31:10.495Z,100959.16
2022-09-28T19:33:41.806Z,100948.09
2022-09-28T19:36:17.562Z,100952.91
2022-09-28T19:38:47.603Z,100948.94
2022-09-28T19:41:43.673Z,100944.66
2022-09-28T19:44:25.700Z,100943.00
2022-09-28T19:47:01.661Z,100941.44
2022-09-28T19:49:34.056Z,100955.31
2022-09-28T19:52:18.977Z,100949.75
2022-09-28T19:54:57.591Z,100954.41
2022-09-28T19:57:33.581Z,100959.16
2022-09-28T20:00:09.777Z,100957.13
2022-09-28T20:02:43.220Z,100964.06
2022-09-28T20:05:17.591Z,100975.31
2022-09-28T20:07:49.650Z,100975.25
2022-09-28T20:10:19.372Z,100969.41
2022-09-28T20:12:49.395Z,100977.56
2022-09-28T20:15:18.763Z,100973.47
2022-09-28T20:17:50.858Z,100981.88
2022-09-28T20:20:23.391Z,100976.38
2022-09-28T20:22:54.348Z,100967.94
2022-09-28T20:25:25.542Z,100967.22
2022-09-28T20:27:58.256Z,100954.84
2022-09-28T20:30:27.532Z,100962.72
2022-09-28T20:33:28.964Z,100963.34
2022-09-28T20:36:00.238Z,100961.50
2022-09-28T20:38:29.866Z,100974.41
2022-09-28T20:41:03.696Z,100974.19
2022-09-28T20:43:35.841Z,100979.97
2022-09-28T20:46:07.355Z,100972.84
2022-09-28T20:48:36.656Z,100980.78
2022-09-28T20:51:24.285Z,100982.22
2022-09-28T20:53:56.328Z,100980.06
2022-09-28T20:56:38.974Z,100986.97
2022-09-28T20:59:39.629Z,100975.28
2022-09-28T21:02:14.128Z,100988.81
2022-09-28T21:05:11.981Z,100977.47
2022-09-28T21:07:41.418Z,100975.88
2022-09-28T21:10:11.179Z,100978.13
2022-09-28T21:12:43.237Z,100972.44
2022-09-28T21:15:14.254Z,100952.84
2022-09-28T21:17:46.845Z,100962.41
2022-09-28T21:20:19.745Z,100964.50
2022-09-28T21:22:48.980Z,100965.84
2022-09-28T21:25:20.982Z,100969.16
2022-09-28T21:27:51.396Z,100972.03
2022-09-28T21:30:21.057Z,100970.09
2022-09-28T21:32:53.047Z,100969.63
2022-09-28T21:35:22.568Z,100960.88
2022-09-28T21:37:51.788Z,100963.47
2022-09-28T21:40:21.379Z,100960.22
2022-09-28T21:42:50.688Z,100961.06
2022-09-28T21:45:21.349Z,100955.75
2022-09-28T21:47:54.041Z,100963.38
2022-09-28T21:50:25.062Z,100961.44
2022-09-28T21:52:56.216Z,100958.25
2022-09-28T21:55:25.714Z,100956.06
2022-09-28T21:57:54.762Z,100960.03
2022-09-28T22:00:27.222Z,100956.75
2022-09-28T22:02:58.012Z,100953.19
2022-09-28T22:05:27.465Z,100957.09
2022-09-28T22:07:56.515Z,100954.97
2022-09-28T22:10:25.788Z,100962.50
2022-09-28T22:12:54.924Z,100959.84
2022-09-28T22:15:24.540Z,100957.47
2022-09-28T22:17:53.636Z,100965.66
2022-09-28T22:20:23.543Z,100949.44
2022-09-28T22:22:55.538Z,100943.91
2022-09-28T22:25:24.824Z,100942.50
2022-09-28T22:27:54.087Z,100942.88
2022-09-28T22:30:23.508Z,100949.19
2022-09-28T22:32:52.613Z,100949.53
2022-09-28T22:35:21.789Z,100956.41
2022-09-28T22:37:51.074Z,100956.44
2022-09-28T22:40:21.054Z,100953.59
2022-09-28T22:42:50.420Z,100955.56
2022-09-28T22:45:20.022Z,100954.66
2022-09-28T22:47:49.428Z,100963.09
2022-09-28T22:50:21.694Z,100959.41
2022-09-28T22:52:52.253Z,100963.53
2022-09-28T22:55:22.968Z,100974.91
2022-09-28T22:57:52.261Z,100976.28
2022-09-28T23:00:24.305Z,100972.28
2022-09-28T23:02:53.622Z,100978.06
2022-09-28T23:05:22.782Z,100971.19
2022-09-28T23:07:52.260Z,100976.28
2022-09-28T23:10:24.565Z,100980.78
2022-09-28T23:12:57.255Z,100977.38
2022-09-28T23:15:27.096Z,100975.88
2022-09-28T23:17:57.196Z,100982.19
2022-09-28T23:20:26.919Z,100978.31
2022-09-28T23:22:56.137Z,100987.13
2022-09-28T23:25:25.326Z,100982.91
2022-09-28T23:27:54.534Z,100987.31
2022-09-28T23:30:25.940Z,100990.84
2022-09-28T23:32:55.102Z,100987.50
2022-09-28T23:35:29.713Z,100987.66
2022-09-28T23:37:59.134Z,100991.44
2022-09-28T23:40:28.493Z,100987.13
2022-09-28T23:42:58.003Z,100995.50
2022-09-28T23:45:34.380Z,100987.84
2022-09-28T23:48:04.016Z,100986.97
2022-09-28T23:50:33.347Z,100985.00
2022-09-28T23:53:24.916Z,100990.91
2022-09-28T23:56:00.413Z,100990.63
2022-09-28T23:58:34.540Z,100985.25
